Ferdinand, Idaho
Current Conditions -  °F | °C
As of 1:35 PM on Wednesday 26 Nov 2014 (Local Time) from KGIC Reporting Station
Clear Clear  
Wind Chill: 48°   Ceiling: Unl
Heat Index: 48°   Visibility: 10mi
Dew Point: 40°   Wind: 3mph
Humidity: 75%   Direction: 60°ENE
Pressure: 30.2"   Gusts: NA
Location:  46.15°N, 116.39°W
Report Text: KGIC 262135Z AUTO 06003KT 10SM CLR 09/05 A3020 RMK AO1 T00900047
Loading
Personal Weather Stations






























Interactive Weather Map New forecast layout! Learn more

10-Day Weather Forecast

Advertisements
Track Severe Weather on mobile